sensor_id;sensor_type;location;lat;lon;timestamp;P1;durP1;ratioP1;P2;durP2;ratioP2
17171;SDS011;8701;50.150;8.756;2024-01-25T00:01:11;20.03;;;3.77;;
17171;SDS011;8701;50.150;8.756;2024-01-25T00:05:16;21.37;;;3.90;;
17171;SDS011;8701;50.150;8.756;2024-01-25T00:09:18;22.37;;;4.20;;
17171;SDS011;8701;50.150;8.756;2024-01-25T00:13:20;25.40;;;3.53;;
17171;SDS011;8701;50.150;8.756;2024-01-25T00:17:23;18.20;;;4.13;;
17171;SDS011;8701;50.150;8.756;2024-01-25T00:21:26;16.07;;;3.27;;
17171;SDS011;8701;50.150;8.756;2024-01-25T00:25:28;21.40;;;3.43;;
17171;SDS011;8701;50.150;8.756;2024-01-25T00:29:31;20.43;;;3.30;;
17171;SDS011;8701;50.150;8.756;2024-01-25T00:33:35;22.00;;;3.60;;
17171;SDS011;8701;50.150;8.756;2024-01-25T00:37:39;14.23;;;3.07;;
17171;SDS011;8701;50.150;8.756;2024-01-25T00:41:42;14.03;;;2.80;;
17171;SDS011;8701;50.150;8.756;2024-01-25T00:45:47;18.13;;;2.90;;
17171;SDS011;8701;50.150;8.756;2024-01-25T00:49:50;10.80;;;2.20;;
17171;SDS011;8701;50.150;8.756;2024-01-25T00:53:54;20.40;;;3.00;;
17171;SDS011;8701;50.150;8.756;2024-01-25T00:57:56;19.40;;;3.53;;
17171;SDS011;8701;50.150;8.756;2024-01-25T01:02:00;17.43;;;3.50;;
17171;SDS011;8701;50.150;8.756;2024-01-25T01:06:06;14.57;;;3.27;;
17171;SDS011;8701;50.150;8.756;2024-01-25T01:10:10;15.20;;;2.67;;
17171;SDS011;8701;50.150;8.756;2024-01-25T01:14:14;16.83;;;3.10;;
17171;SDS011;8701;50.150;8.756;2024-01-25T01:18:17;16.30;;;3.10;;
17171;SDS011;8701;50.150;8.756;2024-01-25T01:22:19;18.10;;;3.30;;
17171;SDS011;8701;50.150;8.756;2024-01-25T01:26:22;18.03;;;3.20;;
17171;SDS011;8701;50.150;8.756;2024-01-25T01:30:25;21.73;;;4.20;;
17171;SDS011;8701;50.150;8.756;2024-01-25T01:34:27;18.03;;;3.60;;
17171;SDS011;8701;50.150;8.756;2024-01-25T01:38:29;17.73;;;2.80;;
17171;SDS011;8701;50.150;8.756;2024-01-25T01:42:33;14.57;;;2.67;;
17171;SDS011;8701;50.150;8.756;2024-01-25T01:46:35;15.80;;;2.90;;
17171;SDS011;8701;50.150;8.756;2024-01-25T01:50:40;21.90;;;3.60;;
17171;SDS011;8701;50.150;8.756;2024-01-25T01:54:42;12.83;;;2.70;;
17171;SDS011;8701;50.150;8.756;2024-01-25T01:58:47;19.50;;;4.40;;
17171;SDS011;8701;50.150;8.756;2024-01-25T02:02:50;16.90;;;4.13;;
17171;SDS011;8701;50.150;8.756;2024-01-25T02:06:52;18.47;;;3.20;;
17171;SDS011;8701;50.150;8.756;2024-01-25T02:10:54;17.67;;;3.00;;
17171;SDS011;8701;50.150;8.756;2024-01-25T02:14:59;11.30;;;2.80;;
17171;SDS011;8701;50.150;8.756;2024-01-25T02:19:01;16.73;;;3.83;;
17171;SDS011;8701;50.150;8.756;2024-01-25T02:23:05;25.77;;;3.50;;
17171;SDS011;8701;50.150;8.756;2024-01-25T02:27:07;26.00;;;4.07;;
17171;SDS011;8701;50.150;8.756;2024-01-25T02:31:10;22.33;;;3.70;;
17171;SDS011;8701;50.150;8.756;2024-01-25T02:35:12;12.60;;;2.73;;
17171;SDS011;8701;50.150;8.756;2024-01-25T02:39:16;15.03;;;3.37;;
17171;SDS011;8701;50.150;8.756;2024-01-25T02:43:18;14.10;;;3.00;;
17171;SDS011;8701;50.150;8.756;2024-01-25T02:47:20;12.00;;;3.27;;
17171;SDS011;8701;50.150;8.756;2024-01-25T02:51:23;23.50;;;3.37;;
17171;SDS011;8701;50.150;8.756;2024-01-25T02:55:57;13.17;;;2.60;;
17171;SDS011;8701;50.150;8.756;2024-01-25T02:59:59;16.97;;;2.87;;
17171;SDS011;8701;50.150;8.756;2024-01-25T03:04:01;16.73;;;3.17;;
17171;SDS011;8701;50.150;8.756;2024-01-25T03:08:04;9.70;;;2.80;;
17171;SDS011;8701;50.150;8.756;2024-01-25T03:12:08;15.60;;;3.07;;
17171;SDS011;8701;50.150;8.756;2024-01-25T03:16:10;17.00;;;3.57;;
17171;SDS011;8701;50.150;8.756;2024-01-25T03:20:12;20.37;;;4.03;;
17171;SDS011;8701;50.150;8.756;2024-01-25T03:24:15;17.50;;;3.40;;
17171;SDS011;8701;50.150;8.756;2024-01-25T03:28:18;15.63;;;3.60;;
17171;SDS011;8701;50.150;8.756;2024-01-25T03:32:21;11.13;;;3.30;;
17171;SDS011;8701;50.150;8.756;2024-01-25T03:36:24;11.90;;;3.10;;
17171;SDS011;8701;50.150;8.756;2024-01-25T03:40:26;26.80;;;3.90;;
17171;SDS011;8701;50.150;8.756;2024-01-25T03:44:30;18.23;;;2.97;;
17171;SDS011;8701;50.150;8.756;2024-01-25T03:48:32;19.93;;;3.87;;
17171;SDS011;8701;50.150;8.756;2024-01-25T03:52:35;18.43;;;3.50;;
17171;SDS011;8701;50.150;8.756;2024-01-25T03:56:37;13.00;;;3.03;;
17171;SDS011;8701;50.150;8.756;2024-01-25T04:00:41;17.13;;;3.20;;
17171;SDS011;8701;50.150;8.756;2024-01-25T04:04:43;18.37;;;3.03;;
17171;SDS011;8701;50.150;8.756;2024-01-25T04:08:45;15.30;;;3.30;;
17171;SDS011;8701;50.150;8.756;2024-01-25T04:12:47;24.20;;;3.13;;
17171;SDS011;8701;50.150;8.756;2024-01-25T04:16:51;17.97;;;3.00;;
17171;SDS011;8701;50.150;8.756;2024-01-25T04:20:53;15.27;;;3.53;;
17171;SDS011;8701;50.150;8.756;2024-01-25T04:24:55;23.17;;;3.83;;
17171;SDS011;8701;50.150;8.756;2024-01-25T04:28:58;19.93;;;3.60;;
17171;SDS011;8701;50.150;8.756;2024-01-25T04:33:03;17.70;;;3.57;;
17171;SDS011;8701;50.150;8.756;2024-01-25T04:37:06;15.90;;;3.20;;
17171;SDS011;8701;50.150;8.756;2024-01-25T04:41:08;18.20;;;3.17;;
17171;SDS011;8701;50.150;8.756;2024-01-25T04:45:10;17.03;;;3.20;;
17171;SDS011;8701;50.150;8.756;2024-01-25T04:49:14;12.43;;;3.00;;
17171;SDS011;8701;50.150;8.756;2024-01-25T04:53:16;18.93;;;3.40;;
17171;SDS011;8701;50.150;8.756;2024-01-25T04:57:19;22.07;;;3.50;;
17171;SDS011;8701;50.150;8.756;2024-01-25T05:01:22;22.83;;;3.57;;
17171;SDS011;8701;50.150;8.756;2024-01-25T05:05:25;23.10;;;4.73;;
17171;SDS011;8701;50.150;8.756;2024-01-25T05:09:28;24.97;;;4.10;;
17171;SDS011;8701;50.150;8.756;2024-01-25T05:13:30;18.77;;;4.47;;
17171;SDS011;8701;50.150;8.756;2024-01-25T05:17:33;16.07;;;3.30;;
17171;SDS011;8701;50.150;8.756;2024-01-25T05:21:37;11.93;;;3.00;;
17171;SDS011;8701;50.150;8.756;2024-01-25T05:25:39;17.90;;;3.43;;
17171;SDS011;8701;50.150;8.756;2024-01-25T05:29:42;12.03;;;2.50;;
17171;SDS011;8701;50.150;8.756;2024-01-25T05:33:44;15.17;;;3.23;;
17171;SDS011;8701;50.150;8.756;2024-01-25T05:37:48;22.40;;;3.20;;
17171;SDS011;8701;50.150;8.756;2024-01-25T05:41:50;18.60;;;3.40;;
17171;SDS011;8701;50.150;8.756;2024-01-25T05:45:52;18.07;;;3.10;;
17171;SDS011;8701;50.150;8.756;2024-01-25T05:49:54;15.50;;;3.03;;
17171;SDS011;8701;50.150;8.756;2024-01-25T05:53:58;14.60;;;3.10;;
17171;SDS011;8701;50.150;8.756;2024-01-25T05:58:01;22.03;;;3.83;;
17171;SDS011;8701;50.150;8.756;2024-01-25T06:02:03;24.93;;;4.03;;
17171;SDS011;8701;50.150;8.756;2024-01-25T06:06:06;25.73;;;3.37;;
17171;SDS011;8701;50.150;8.756;2024-01-25T06:10:10;20.33;;;4.27;;
17171;SDS011;8701;50.150;8.756;2024-01-25T06:14:13;26.13;;;4.33;;
17171;SDS011;8701;50.150;8.756;2024-01-25T06:18:16;19.73;;;4.00;;
17171;SDS011;8701;50.150;8.756;2024-01-25T06:22:18;15.67;;;3.70;;
17171;SDS011;8701;50.150;8.756;2024-01-25T06:26:22;22.53;;;4.50;;
17171;SDS011;8701;50.150;8.756;2024-01-25T06:30:24;24.77;;;4.70;;
17171;SDS011;8701;50.150;8.756;2024-01-25T06:34:26;28.73;;;5.60;;
17171;SDS011;8701;50.150;8.756;2024-01-25T06:38:29;19.53;;;3.90;;
17171;SDS011;8701;50.150;8.756;2024-01-25T06:42:32;16.53;;;3.63;;
17171;SDS011;8701;50.150;8.756;2024-01-25T06:46:35;21.73;;;4.37;;
17171;SDS011;8701;50.150;8.756;2024-01-25T06:50:37;23.47;;;4.30;;
17171;SDS011;8701;50.150;8.756;2024-01-25T06:54:39;13.40;;;3.57;;
17171;SDS011;8701;50.150;8.756;2024-01-25T06:58:43;22.90;;;3.10;;
17171;SDS011;8701;50.150;8.756;2024-01-25T07:02:45;20.27;;;3.50;;
17171;SDS011;8701;50.150;8.756;2024-01-25T07:06:48;16.53;;;3.17;;
17171;SDS011;8701;50.150;8.756;2024-01-25T07:10:51;20.03;;;4.13;;
17171;SDS011;8701;50.150;8.756;2024-01-25T07:14:55;15.90;;;3.67;;
17171;SDS011;8701;50.150;8.756;2024-01-25T07:18:57;15.30;;;4.07;;
17171;SDS011;8701;50.150;8.756;2024-01-25T07:22:59;19.83;;;3.40;;
17171;SDS011;8701;50.150;8.756;2024-01-25T07:27:02;18.30;;;3.80;;
17171;SDS011;8701;50.150;8.756;2024-01-25T07:31:06;11.50;;;3.03;;
17171;SDS011;8701;50.150;8.756;2024-01-25T07:35:08;17.90;;;3.60;;
17171;SDS011;8701;50.150;8.756;2024-01-25T07:39:11;13.40;;;3.03;;
17171;SDS011;8701;50.150;8.756;2024-01-25T07:43:13;25.17;;;4.20;;
17171;SDS011;8701;50.150;8.756;2024-01-25T07:47:17;16.83;;;3.20;;
17171;SDS011;8701;50.150;8.756;2024-01-25T07:51:19;15.00;;;3.40;;
17171;SDS011;8701;50.150;8.756;2024-01-25T07:55:21;19.43;;;3.20;;
17171;SDS011;8701;50.150;8.756;2024-01-25T07:59:24;15.27;;;3.93;;
17171;SDS011;8701;50.150;8.756;2024-01-25T08:03:27;24.70;;;4.43;;
17171;SDS011;8701;50.150;8.756;2024-01-25T08:07:31;20.27;;;4.80;;
17171;SDS011;8701;50.150;8.756;2024-01-25T08:11:33;19.23;;;4.30;;
17171;SDS011;8701;50.150;8.756;2024-01-25T08:15:36;18.43;;;4.73;;
17171;SDS011;8701;50.150;8.756;2024-01-25T08:19:40;22.00;;;4.30;;
17171;SDS011;8701;50.150;8.756;2024-01-25T08:23:42;25.77;;;4.07;;
17171;SDS011;8701;50.150;8.756;2024-01-25T08:27:45;22.27;;;4.00;;
17171;SDS011;8701;50.150;8.756;2024-01-25T08:31:47;21.60;;;3.70;;
17171;SDS011;8701;50.150;8.756;2024-01-25T08:35:51;13.77;;;3.63;;
17171;SDS011;8701;50.150;8.756;2024-01-25T08:39:53;26.20;;;3.80;;
17171;SDS011;8701;50.150;8.756;2024-01-25T08:43:56;26.43;;;4.50;;
17171;SDS011;8701;50.150;8.756;2024-01-25T08:47:58;17.40;;;4.20;;
17171;SDS011;8701;50.150;8.756;2024-01-25T08:52:02;22.97;;;4.20;;
17171;SDS011;8701;50.150;8.756;2024-01-25T08:56:06;16.10;;;3.93;;
17171;SDS011;8701;50.150;8.756;2024-01-25T09:00:09;24.03;;;4.23;;
17171;SDS011;8701;50.150;8.756;2024-01-25T09:04:12;20.50;;;4.50;;
17171;SDS011;8701;50.150;8.756;2024-01-25T09:08:16;13.20;;;3.60;;
17171;SDS011;8701;50.150;8.756;2024-01-25T09:12:18;13.90;;;3.90;;
17171;SDS011;8701;50.150;8.756;2024-01-25T09:16:21;17.27;;;4.33;;
17171;SDS011;8701;50.150;8.756;2024-01-25T09:20:23;27.40;;;4.13;;
17171;SDS011;8701;50.150;8.756;2024-01-25T09:24:27;18.53;;;4.03;;
17171;SDS011;8701;50.150;8.756;2024-01-25T09:28:29;17.00;;;4.87;;
17171;SDS011;8701;50.150;8.756;2024-01-25T09:32:31;29.10;;;5.43;;
17171;SDS011;8701;50.150;8.756;2024-01-25T09:36:34;19.97;;;3.83;;
17171;SDS011;8701;50.150;8.756;2024-01-25T09:40:37;19.03;;;4.63;;
17171;SDS011;8701;50.150;8.756;2024-01-25T09:44:40;9.07;;;3.57;;
17171;SDS011;8701;50.150;8.756;2024-01-25T09:48:44;14.63;;;3.70;;
17171;SDS011;8701;50.150;8.756;2024-01-25T09:52:50;22.00;;;4.80;;
17171;SDS011;8701;50.150;8.756;2024-01-25T09:56:58;23.67;;;4.43;;
17171;SDS011;8701;50.150;8.756;2024-01-25T10:01:01;16.77;;;4.00;;
17171;SDS011;8701;50.150;8.756;2024-01-25T10:05:04;21.63;;;3.97;;
17171;SDS011;8701;50.150;8.756;2024-01-25T10:09:07;31.13;;;4.53;;
17171;SDS011;8701;50.150;8.756;2024-01-25T10:13:13;24.43;;;4.43;;
17171;SDS011;8701;50.150;8.756;2024-01-25T10:17:15;19.17;;;5.37;;
17171;SDS011;8701;50.150;8.756;2024-01-25T10:21:19;23.50;;;4.50;;
17171;SDS011;8701;50.150;8.756;2024-01-25T10:25:23;24.50;;;4.37;;
17171;SDS011;8701;50.150;8.756;2024-01-25T10:29:26;12.37;;;3.43;;
17171;SDS011;8701;50.150;8.756;2024-01-25T10:33:29;27.03;;;4.90;;
17171;SDS011;8701;50.150;8.756;2024-01-25T10:37:32;30.13;;;4.20;;
17171;SDS011;8701;50.150;8.756;2024-01-25T10:41:35;21.13;;;4.63;;
17171;SDS011;8701;50.150;8.756;2024-01-25T10:45:38;20.97;;;4.13;;
17171;SDS011;8701;50.150;8.756;2024-01-25T10:49:41;15.63;;;3.90;;
17171;SDS011;8701;50.150;8.756;2024-01-25T10:53:43;23.63;;;4.20;;
17171;SDS011;8701;50.150;8.756;2024-01-25T10:57:46;25.87;;;4.90;;
17171;SDS011;8701;50.150;8.756;2024-01-25T11:01:50;23.97;;;3.90;;
17171;SDS011;8701;50.150;8.756;2024-01-25T11:05:52;21.33;;;4.37;;
17171;SDS011;8701;50.150;8.756;2024-01-25T11:09:56;28.77;;;4.27;;
17171;SDS011;8701;50.150;8.756;2024-01-25T11:13:59;11.03;;;3.57;;
17171;SDS011;8701;50.150;8.756;2024-01-25T11:18:03;23.97;;;4.40;;
17171;SDS011;8701;50.150;8.756;2024-01-25T11:22:07;20.83;;;4.00;;
17171;SDS011;8701;50.150;8.756;2024-01-25T11:26:12;27.63;;;4.67;;
17171;SDS011;8701;50.150;8.756;2024-01-25T11:30:14;22.43;;;5.10;;
17171;SDS011;8701;50.150;8.756;2024-01-25T11:34:21;21.77;;;4.37;;
17171;SDS011;8701;50.150;8.756;2024-01-25T11:38:26;19.70;;;4.50;;
17171;SDS011;8701;50.150;8.756;2024-01-25T11:42:30;15.37;;;4.10;;
17171;SDS011;8701;50.150;8.756;2024-01-25T11:46:33;18.47;;;3.93;;
17171;SDS011;8701;50.150;8.756;2024-01-25T11:50:37;20.80;;;4.30;;
17171;SDS011;8701;50.150;8.756;2024-01-25T11:54:40;17.00;;;3.63;;
17171;SDS011;8701;50.150;8.756;2024-01-25T11:58:42;22.10;;;3.90;;
17171;SDS011;8701;50.150;8.756;2024-01-25T12:02:46;24.50;;;3.97;;
17171;SDS011;8701;50.150;8.756;2024-01-25T12:06:50;24.80;;;3.70;;
17171;SDS011;8701;50.150;8.756;2024-01-25T12:11:01;19.00;;;3.80;;
17171;SDS011;8701;50.150;8.756;2024-01-25T12:15:05;19.80;;;3.87;;
17171;SDS011;8701;50.150;8.756;2024-01-25T12:19:08;23.47;;;4.03;;
17171;SDS011;8701;50.150;8.756;2024-01-25T12:23:12;14.37;;;3.43;;
17171;SDS011;8701;50.150;8.756;2024-01-25T12:27:14;27.83;;;4.07;;
17171;SDS011;8701;50.150;8.756;2024-01-25T12:31:17;17.67;;;3.90;;
17171;SDS011;8701;50.150;8.756;2024-01-25T12:35:19;16.60;;;3.70;;
17171;SDS011;8701;50.150;8.756;2024-01-25T12:39:23;22.50;;;4.83;;
17171;SDS011;8701;50.150;8.756;2024-01-25T12:43:25;30.77;;;4.80;;
17171;SDS011;8701;50.150;8.756;2024-01-25T12:47:28;18.53;;;3.33;;
17171;SDS011;8701;50.150;8.756;2024-01-25T12:51:30;19.10;;;3.70;;
17171;SDS011;8701;50.150;8.756;2024-01-25T12:55:35;19.00;;;4.00;;
17171;SDS011;8701;50.150;8.756;2024-01-25T12:59:37;18.93;;;3.63;;
17171;SDS011;8701;50.150;8.756;2024-01-25T13:03:41;14.33;;;3.43;;
17171;SDS011;8701;50.150;8.756;2024-01-25T13:07:43;18.07;;;4.10;;
17171;SDS011;8701;50.150;8.756;2024-01-25T13:11:50;15.20;;;3.00;;
17171;SDS011;8701;50.150;8.756;2024-01-25T13:15:55;22.80;;;4.63;;
17171;SDS011;8701;50.150;8.756;2024-01-25T13:19:57;19.90;;;4.00;;
17171;SDS011;8701;50.150;8.756;2024-01-25T13:24:00;16.93;;;3.83;;
17171;SDS011;8701;50.150;8.756;2024-01-25T13:28:06;20.80;;;3.80;;
17171;SDS011;8701;50.150;8.756;2024-01-25T13:32:08;16.03;;;4.33;;
17171;SDS011;8701;50.150;8.756;2024-01-25T13:36:11;19.40;;;3.93;;
17171;SDS011;8701;50.150;8.756;2024-01-25T13:40:14;15.83;;;4.10;;
17171;SDS011;8701;50.150;8.756;2024-01-25T13:44:18;18.90;;;3.67;;
17171;SDS011;8701;50.150;8.756;2024-01-25T13:48:20;19.40;;;3.73;;
17171;SDS011;8701;50.150;8.756;2024-01-25T13:52:23;15.33;;;4.53;;
17171;SDS011;8701;50.150;8.756;2024-01-25T13:56:25;15.27;;;4.30;;
17171;SDS011;8701;50.150;8.756;2024-01-25T14:00:29;21.27;;;3.63;;
17171;SDS011;8701;50.150;8.756;2024-01-25T14:04:31;15.50;;;3.20;;
17171;SDS011;8701;50.150;8.756;2024-01-25T14:08:34;18.50;;;3.20;;
17171;SDS011;8701;50.150;8.756;2024-01-25T14:12:36;27.63;;;4.47;;
17171;SDS011;8701;50.150;8.756;2024-01-25T14:16:40;14.40;;;3.37;;
17171;SDS011;8701;50.150;8.756;2024-01-25T14:20:42;17.73;;;3.80;;
17171;SDS011;8701;50.150;8.756;2024-01-25T14:24:44;20.40;;;3.70;;
17171;SDS011;8701;50.150;8.756;2024-01-25T14:28:48;19.07;;;3.73;;
17171;SDS011;8701;50.150;8.756;2024-01-25T14:32:51;16.70;;;3.77;;
17171;SDS011;8701;50.150;8.756;2024-01-25T14:36:54;21.10;;;3.90;;
17171;SDS011;8701;50.150;8.756;2024-01-25T14:40:56;14.37;;;3.23;;
17171;SDS011;8701;50.150;8.756;2024-01-25T14:44:58;14.40;;;3.17;;
17171;SDS011;8701;50.150;8.756;2024-01-25T14:49:02;20.40;;;3.40;;
17171;SDS011;8701;50.150;8.756;2024-01-25T14:53:04;20.97;;;3.50;;
17171;SDS011;8701;50.150;8.756;2024-01-25T14:57:12;20.07;;;4.33;;
17171;SDS011;8701;50.150;8.756;2024-01-25T15:01:14;15.27;;;3.70;;
17171;SDS011;8701;50.150;8.756;2024-01-25T15:05:19;15.83;;;3.80;;
17171;SDS011;8701;50.150;8.756;2024-01-25T15:09:22;15.13;;;4.30;;
17171;SDS011;8701;50.150;8.756;2024-01-25T15:13:24;20.60;;;5.00;;
17171;SDS011;8701;50.150;8.756;2024-01-25T15:17:27;15.70;;;3.80;;
17171;SDS011;8701;50.150;8.756;2024-01-25T15:21:30;20.80;;;4.00;;
17171;SDS011;8701;50.150;8.756;2024-01-25T15:25:33;14.33;;;3.67;;
17171;SDS011;8701;50.150;8.756;2024-01-25T15:29:37;21.87;;;3.73;;
17171;SDS011;8701;50.150;8.756;2024-01-25T15:33:40;18.13;;;3.70;;
17171;SDS011;8701;50.150;8.756;2024-01-25T15:37:44;20.17;;;4.10;;
17171;SDS011;8701;50.150;8.756;2024-01-25T15:41:47;16.40;;;3.70;;
17171;SDS011;8701;50.150;8.756;2024-01-25T15:45:50;18.57;;;4.00;;
17171;SDS011;8701;50.150;8.756;2024-01-25T15:49:53;16.53;;;3.23;;
17171;SDS011;8701;50.150;8.756;2024-01-25T15:53:57;18.33;;;3.57;;
17171;SDS011;8701;50.150;8.756;2024-01-25T15:58:01;16.50;;;3.43;;
17171;SDS011;8701;50.150;8.756;2024-01-25T16:02:03;13.23;;;3.23;;
17171;SDS011;8701;50.150;8.756;2024-01-25T16:06:06;16.97;;;3.63;;
17171;SDS011;8701;50.150;8.756;2024-01-25T16:10:09;17.33;;;3.77;;
17171;SDS011;8701;50.150;8.756;2024-01-25T16:14:12;12.47;;;4.40;;
17171;SDS011;8701;50.150;8.756;2024-01-25T16:18:15;23.87;;;3.73;;
17171;SDS011;8701;50.150;8.756;2024-01-25T16:22:17;15.07;;;4.70;;
17171;SDS011;8701;50.150;8.756;2024-01-25T16:26:22;12.73;;;3.97;;
17171;SDS011;8701;50.150;8.756;2024-01-25T16:30:24;21.07;;;4.10;;
17171;SDS011;8701;50.150;8.756;2024-01-25T16:34:26;14.50;;;4.50;;
17171;SDS011;8701;50.150;8.756;2024-01-25T16:38:29;18.07;;;4.43;;
17171;SDS011;8701;50.150;8.756;2024-01-25T16:42:32;15.97;;;4.27;;
17171;SDS011;8701;50.150;8.756;2024-01-25T16:46:35;16.03;;;3.63;;
17171;SDS011;8701;50.150;8.756;2024-01-25T16:50:37;20.93;;;4.67;;
17171;SDS011;8701;50.150;8.756;2024-01-25T16:54:40;14.97;;;3.87;;
17171;SDS011;8701;50.150;8.756;2024-01-25T16:58:43;11.87;;;3.57;;
17171;SDS011;8701;50.150;8.756;2024-01-25T17:02:45;14.80;;;4.17;;
17171;SDS011;8701;50.150;8.756;2024-01-25T17:06:48;15.37;;;4.50;;
17171;SDS011;8701;50.150;8.756;2024-01-25T17:10:51;15.70;;;4.10;;
17171;SDS011;8701;50.150;8.756;2024-01-25T17:14:54;14.20;;;4.70;;
17171;SDS011;8701;50.150;8.756;2024-01-25T17:18:56;20.30;;;4.40;;
17171;SDS011;8701;50.150;8.756;2024-01-25T17:22:59;23.40;;;5.33;;
17171;SDS011;8701;50.150;8.756;2024-01-25T17:27:02;14.30;;;5.33;;
17171;SDS011;8701;50.150;8.756;2024-01-25T17:31:05;18.07;;;4.63;;
17171;SDS011;8701;50.150;8.756;2024-01-25T17:35:08;15.70;;;4.77;;
17171;SDS011;8701;50.150;8.756;2024-01-25T17:39:11;14.33;;;4.93;;
17171;SDS011;8701;50.150;8.756;2024-01-25T17:43:14;13.20;;;4.70;;
17171;SDS011;8701;50.150;8.756;2024-01-25T17:47:18;28.13;;;4.73;;
17171;SDS011;8701;50.150;8.756;2024-01-25T17:51:20;14.77;;;4.13;;
17171;SDS011;8701;50.150;8.756;2024-01-25T17:55:23;13.63;;;3.90;;
17171;SDS011;8701;50.150;8.756;2024-01-25T17:59:25;18.40;;;4.90;;
17171;SDS011;8701;50.150;8.756;2024-01-25T18:03:29;27.70;;;5.40;;
17171;SDS011;8701;50.150;8.756;2024-01-25T18:07:31;15.93;;;4.50;;
17171;SDS011;8701;50.150;8.756;2024-01-25T18:11:34;14.60;;;4.43;;
17171;SDS011;8701;50.150;8.756;2024-01-25T18:15:36;16.57;;;3.77;;
17171;SDS011;8701;50.150;8.756;2024-01-25T18:19:40;12.37;;;4.10;;
17171;SDS011;8701;50.150;8.756;2024-01-25T18:23:42;21.43;;;6.00;;
17171;SDS011;8701;50.150;8.756;2024-01-25T18:27:45;15.63;;;4.63;;
17171;SDS011;8701;50.150;8.756;2024-01-25T18:31:49;18.03;;;4.63;;
17171;SDS011;8701;50.150;8.756;2024-01-25T18:35:52;16.27;;;4.60;;
17171;SDS011;8701;50.150;8.756;2024-01-25T18:39:55;22.43;;;6.03;;
17171;SDS011;8701;50.150;8.756;2024-01-25T18:44:02;15.47;;;5.60;;
17171;SDS011;8701;50.150;8.756;2024-01-25T18:48:04;16.87;;;5.73;;
17171;SDS011;8701;50.150;8.756;2024-01-25T18:52:08;14.27;;;5.23;;
17171;SDS011;8701;50.150;8.756;2024-01-25T18:56:11;19.77;;;5.40;;
17171;SDS011;8701;50.150;8.756;2024-01-25T19:00:15;17.20;;;5.00;;
17171;SDS011;8701;50.150;8.756;2024-01-25T19:04:18;19.43;;;4.73;;
17171;SDS011;8701;50.150;8.756;2024-01-25T19:08:23;18.43;;;5.20;;
17171;SDS011;8701;50.150;8.756;2024-01-25T19:12:27;14.67;;;4.60;;
17171;SDS011;8701;50.150;8.756;2024-01-25T19:16:30;12.43;;;4.33;;
17171;SDS011;8701;50.150;8.756;2024-01-25T19:20:32;23.63;;;5.87;;
17171;SDS011;8701;50.150;8.756;2024-01-25T19:24:36;22.43;;;6.60;;
17171;SDS011;8701;50.150;8.756;2024-01-25T19:28:38;19.07;;;5.33;;
17171;SDS011;8701;50.150;8.756;2024-01-25T19:32:43;22.33;;;5.77;;
17171;SDS011;8701;50.150;8.756;2024-01-25T19:36:46;22.83;;;6.07;;
17171;SDS011;8701;50.150;8.756;2024-01-25T19:40:51;14.47;;;4.60;;
17171;SDS011;8701;50.150;8.756;2024-01-25T19:44:54;23.00;;;4.63;;
17171;SDS011;8701;50.150;8.756;2024-01-25T19:48:56;16.53;;;4.07;;
17171;SDS011;8701;50.150;8.756;2024-01-25T19:52:59;13.80;;;4.43;;
17171;SDS011;8701;50.150;8.756;2024-01-25T19:57:02;19.33;;;4.80;;
17171;SDS011;8701;50.150;8.756;2024-01-25T20:01:05;18.67;;;4.53;;
17171;SDS011;8701;50.150;8.756;2024-01-25T20:05:10;20.77;;;4.33;;
17171;SDS011;8701;50.150;8.756;2024-01-25T20:09:13;15.00;;;3.80;;
17171;SDS011;8701;50.150;8.756;2024-01-25T20:13:17;16.13;;;5.00;;
17171;SDS011;8701;50.150;8.756;2024-01-25T20:17:19;25.37;;;5.20;;
17171;SDS011;8701;50.150;8.756;2024-01-25T20:21:23;13.17;;;4.47;;
17171;SDS011;8701;50.150;8.756;2024-01-25T20:25:25;35.23;;;5.80;;
17171;SDS011;8701;50.150;8.756;2024-01-25T20:29:29;23.23;;;4.90;;
17171;SDS011;8701;50.150;8.756;2024-01-25T20:33:32;14.50;;;4.60;;
17171;SDS011;8701;50.150;8.756;2024-01-25T20:37:34;23.23;;;4.90;;
17171;SDS011;8701;50.150;8.756;2024-01-25T20:41:37;22.40;;;5.20;;
17171;SDS011;8701;50.150;8.756;2024-01-25T20:45:41;18.93;;;4.83;;
17171;SDS011;8701;50.150;8.756;2024-01-25T20:49:44;16.63;;;4.70;;
17171;SDS011;8701;50.150;8.756;2024-01-25T20:53:47;20.27;;;4.67;;
17171;SDS011;8701;50.150;8.756;2024-01-25T20:57:50;21.10;;;4.53;;
17171;SDS011;8701;50.150;8.756;2024-01-25T21:01:54;21.63;;;4.77;;
17171;SDS011;8701;50.150;8.756;2024-01-25T21:05:58;26.33;;;6.47;;
17171;SDS011;8701;50.150;8.756;2024-01-25T21:10:01;25.97;;;5.80;;
17171;SDS011;8701;50.150;8.756;2024-01-25T21:14:04;22.17;;;7.10;;
17171;SDS011;8701;50.150;8.756;2024-01-25T21:18:08;23.63;;;5.30;;
17171;SDS011;8701;50.150;8.756;2024-01-25T21:22:11;16.97;;;6.27;;
17171;SDS011;8701;50.150;8.756;2024-01-25T21:26:13;18.23;;;5.37;;
17171;SDS011;8701;50.150;8.756;2024-01-25T21:30:16;25.30;;;6.30;;
17171;SDS011;8701;50.150;8.756;2024-01-25T21:34:19;24.33;;;6.07;;
17171;SDS011;8701;50.150;8.756;2024-01-25T21:38:22;22.37;;;6.50;;
17171;SDS011;8701;50.150;8.756;2024-01-25T21:42:25;17.80;;;6.07;;
17171;SDS011;8701;50.150;8.756;2024-01-25T21:46:27;22.07;;;6.87;;
17171;SDS011;8701;50.150;8.756;2024-01-25T21:50:31;24.37;;;6.90;;
17171;SDS011;8701;50.150;8.756;2024-01-25T21:54:33;21.83;;;5.53;;
17171;SDS011;8701;50.150;8.756;2024-01-25T21:58:36;26.53;;;6.43;;
17171;SDS011;8701;50.150;8.756;2024-01-25T22:02:38;23.87;;;6.70;;
17171;SDS011;8701;50.150;8.756;2024-01-25T22:06:41;28.23;;;6.80;;
17171;SDS011;8701;50.150;8.756;2024-01-25T22:10:44;15.80;;;6.67;;
17171;SDS011;8701;50.150;8.756;2024-01-25T22:14:46;24.57;;;7.40;;
17171;SDS011;8701;50.150;8.756;2024-01-25T22:18:48;24.47;;;7.07;;
17171;SDS011;8701;50.150;8.756;2024-01-25T22:22:52;21.60;;;8.13;;
17171;SDS011;8701;50.150;8.756;2024-01-25T22:26:54;17.07;;;8.00;;
17171;SDS011;8701;50.150;8.756;2024-01-25T22:30:56;26.03;;;9.17;;
17171;SDS011;8701;50.150;8.756;2024-01-25T22:34:58;26.10;;;9.43;;
17171;SDS011;8701;50.150;8.756;2024-01-25T22:39:02;19.73;;;9.57;;
17171;SDS011;8701;50.150;8.756;2024-01-25T22:43:05;18.13;;;9.20;;
17171;SDS011;8701;50.150;8.756;2024-01-25T22:47:08;28.73;;;10.10;;
17171;SDS011;8701;50.150;8.756;2024-01-25T22:51:10;19.20;;;10.40;;
17171;SDS011;8701;50.150;8.756;2024-01-25T22:55:13;24.33;;;10.60;;
17171;SDS011;8701;50.150;8.756;2024-01-25T22:59:16;23.20;;;11.40;;
17171;SDS011;8701;50.150;8.756;2024-01-25T23:03:18;21.70;;;11.27;;
17171;SDS011;8701;50.150;8.756;2024-01-25T23:07:20;24.93;;;11.67;;
17171;SDS011;8701;50.150;8.756;2024-01-25T23:11:25;23.70;;;12.20;;
17171;SDS011;8701;50.150;8.756;2024-01-25T23:15:27;25.97;;;11.97;;
17171;SDS011;8701;50.150;8.756;2024-01-25T23:19:29;27.63;;;12.40;;
17171;SDS011;8701;50.150;8.756;2024-01-25T23:23:31;26.53;;;11.50;;
17171;SDS011;8701;50.150;8.756;2024-01-25T23:27:36;23.17;;;11.47;;
17171;SDS011;8701;50.150;8.756;2024-01-25T23:31:39;26.23;;;12.13;;
17171;SDS011;8701;50.150;8.756;2024-01-25T23:35:41;25.57;;;12.60;;
17171;SDS011;8701;50.150;8.756;2024-01-25T23:39:44;29.47;;;12.53;;
17171;SDS011;8701;50.150;8.756;2024-01-25T23:43:47;25.37;;;13.27;;
17171;SDS011;8701;50.150;8.756;2024-01-25T23:47:50;23.03;;;13.73;;
17171;SDS011;8701;50.150;8.756;2024-01-25T23:51:52;25.10;;;12.60;;
17171;SDS011;8701;50.150;8.756;2024-01-25T23:55:55;35.17;;;13.03;;
17171;SDS011;8701;50.150;8.756;2024-01-25T23:59:58;29.50;;;13.20;;
